sensor_id;sensor_type;location;lat;lon;timestamp;P1;durP1;ratioP1;P2;durP2;ratioP2
43620;SDS011;29213;50.770;7.298;2022-10-16T00:01:22;3.05;;;1.70;;
43620;SDS011;29213;50.770;7.298;2022-10-16T00:03:50;3.33;;;1.35;;
43620;SDS011;29213;50.770;7.298;2022-10-16T00:06:17;2.72;;;1.40;;
43620;SDS011;29213;50.770;7.298;2022-10-16T00:08:44;3.17;;;1.38;;
43620;SDS011;29213;50.770;7.298;2022-10-16T00:11:20;2.50;;;1.33;;
43620;SDS011;29213;50.770;7.298;2022-10-16T00:13:48;4.90;;;1.52;;
43620;SDS011;29213;50.770;7.298;2022-10-16T00:16:15;2.67;;;1.25;;
43620;SDS011;29213;50.770;7.298;2022-10-16T00:18:41;3.38;;;1.50;;
43620;SDS011;29213;50.770;7.298;2022-10-16T00:21:07;2.90;;;1.30;;
43620;SDS011;29213;50.770;7.298;2022-10-16T00:23:36;4.05;;;1.30;;
43620;SDS011;29213;50.770;7.298;2022-10-16T00:26:03;3.33;;;1.20;;
43620;SDS011;29213;50.770;7.298;2022-10-16T00:28:33;2.72;;;1.42;;
43620;SDS011;29213;50.770;7.298;2022-10-16T00:31:01;3.00;;;1.35;;
43620;SDS011;29213;50.770;7.298;2022-10-16T00:33:31;3.80;;;1.30;;
43620;SDS011;29213;50.770;7.298;2022-10-16T00:35:58;5.65;;;1.60;;
43620;SDS011;29213;50.770;7.298;2022-10-16T00:38:24;4.68;;;1.40;;
43620;SDS011;29213;50.770;7.298;2022-10-16T00:40:49;3.75;;;1.40;;
43620;SDS011;29213;50.770;7.298;2022-10-16T00:43:32;5.68;;;1.48;;
43620;SDS011;29213;50.770;7.298;2022-10-16T00:46:29;2.35;;;1.30;;
43620;SDS011;29213;50.770;7.298;2022-10-16T00:49:16;4.97;;;1.70;;
43620;SDS011;29213;50.770;7.298;2022-10-16T00:51:45;4.18;;;1.63;;
43620;SDS011;29213;50.770;7.298;2022-10-16T00:54:15;4.07;;;1.70;;
43620;SDS011;29213;50.770;7.298;2022-10-16T00:56:44;3.83;;;1.85;;
43620;SDS011;29213;50.770;7.298;2022-10-16T00:59:15;3.85;;;1.90;;
43620;SDS011;29213;50.770;7.298;2022-10-16T01:01:44;4.22;;;1.90;;
43620;SDS011;29213;50.770;7.298;2022-10-16T01:04:09;4.93;;;1.80;;
43620;SDS011;29213;50.770;7.298;2022-10-16T01:06:51;3.67;;;1.60;;
43620;SDS011;29213;50.770;7.298;2022-10-16T01:09:41;3.40;;;1.58;;
43620;SDS011;29213;50.770;7.298;2022-10-16T01:12:14;3.85;;;1.80;;
43620;SDS011;29213;50.770;7.298;2022-10-16T01:14:54;4.90;;;1.95;;
43620;SDS011;29213;50.770;7.298;2022-10-16T01:17:35;2.83;;;1.60;;
43620;SDS011;29213;50.770;7.298;2022-10-16T01:20:10;3.25;;;1.60;;
43620;SDS011;29213;50.770;7.298;2022-10-16T01:25:37;3.30;;;1.73;;
43620;SDS011;29213;50.770;7.298;2022-10-16T01:28:14;2.83;;;1.58;;
43620;SDS011;29213;50.770;7.298;2022-10-16T01:30:43;2.83;;;1.50;;
43620;SDS011;29213;50.770;7.298;2022-10-16T01:33:30;2.97;;;1.63;;
43620;SDS011;29213;50.770;7.298;2022-10-16T01:36:06;2.58;;;1.48;;
43620;SDS011;29213;50.770;7.298;2022-10-16T01:38:37;2.97;;;1.45;;
43620;SDS011;29213;50.770;7.298;2022-10-16T01:41:09;4.38;;;1.63;;
43620;SDS011;29213;50.770;7.298;2022-10-16T01:43:53;2.83;;;1.50;;
43620;SDS011;29213;50.770;7.298;2022-10-16T01:46:27;5.90;;;1.70;;
43620;SDS011;29213;50.770;7.298;2022-10-16T01:48:55;2.80;;;1.55;;
43620;SDS011;29213;50.770;7.298;2022-10-16T01:51:22;3.00;;;1.50;;
43620;SDS011;29213;50.770;7.298;2022-10-16T01:53:50;4.43;;;1.58;;
43620;SDS011;29213;50.770;7.298;2022-10-16T01:56:20;3.22;;;1.65;;
43620;SDS011;29213;50.770;7.298;2022-10-16T01:58:55;4.10;;;1.50;;
43620;SDS011;29213;50.770;7.298;2022-10-16T02:01:29;4.32;;;1.55;;
43620;SDS011;29213;50.770;7.298;2022-10-16T02:03:59;2.40;;;1.30;;
43620;SDS011;29213;50.770;7.298;2022-10-16T02:06:33;3.30;;;1.50;;
43620;SDS011;29213;50.770;7.298;2022-10-16T02:08:59;3.38;;;1.58;;
43620;SDS011;29213;50.770;7.298;2022-10-16T02:11:25;4.05;;;1.50;;
43620;SDS011;29213;50.770;7.298;2022-10-16T02:13:55;2.45;;;1.23;;
43620;SDS011;29213;50.770;7.298;2022-10-16T02:16:32;3.55;;;1.42;;
43620;SDS011;29213;50.770;7.298;2022-10-16T02:19:00;3.38;;;1.27;;
43620;SDS011;29213;50.770;7.298;2022-10-16T02:21:26;3.30;;;1.35;;
43620;SDS011;29213;50.770;7.298;2022-10-16T02:26:36;4.53;;;1.33;;
43620;SDS011;29213;50.770;7.298;2022-10-16T02:29:10;3.30;;;1.48;;
43620;SDS011;29213;50.770;7.298;2022-10-16T02:31:41;2.72;;;1.50;;
43620;SDS011;29213;50.770;7.298;2022-10-16T02:34:10;2.50;;;1.20;;
43620;SDS011;29213;50.770;7.298;2022-10-16T02:36:37;3.15;;;1.60;;
43620;SDS011;29213;50.770;7.298;2022-10-16T02:39:05;3.88;;;1.40;;
43620;SDS011;29213;50.770;7.298;2022-10-16T02:41:32;2.20;;;1.20;;
43620;SDS011;29213;50.770;7.298;2022-10-16T02:43:57;2.53;;;1.25;;
43620;SDS011;29213;50.770;7.298;2022-10-16T02:46:23;2.38;;;1.20;;
43620;SDS011;29213;50.770;7.298;2022-10-16T02:48:48;5.30;;;1.52;;
43620;SDS011;29213;50.770;7.298;2022-10-16T02:51:14;2.60;;;1.40;;
43620;SDS011;29213;50.770;7.298;2022-10-16T02:53:39;3.88;;;1.48;;
43620;SDS011;29213;50.770;7.298;2022-10-16T02:56:05;3.10;;;1.45;;
43620;SDS011;29213;50.770;7.298;2022-10-16T02:58:30;2.47;;;1.30;;
43620;SDS011;29213;50.770;7.298;2022-10-16T03:00:55;2.45;;;1.30;;
43620;SDS011;29213;50.770;7.298;2022-10-16T03:03:21;2.75;;;1.50;;
43620;SDS011;29213;50.770;7.298;2022-10-16T03:05:46;3.50;;;1.40;;
43620;SDS011;29213;50.770;7.298;2022-10-16T03:08:12;3.67;;;1.33;;
43620;SDS011;29213;50.770;7.298;2022-10-16T03:10:38;3.25;;;1.30;;
43620;SDS011;29213;50.770;7.298;2022-10-16T03:13:03;2.85;;;1.48;;
43620;SDS011;29213;50.770;7.298;2022-10-16T03:15:29;2.50;;;1.27;;
43620;SDS011;29213;50.770;7.298;2022-10-16T03:17:54;2.13;;;1.20;;
43620;SDS011;29213;50.770;7.298;2022-10-16T03:20:22;2.53;;;1.23;;
43620;SDS011;29213;50.770;7.298;2022-10-16T03:22:47;3.53;;;1.30;;
43620;SDS011;29213;50.770;7.298;2022-10-16T03:25:12;3.83;;;1.30;;
43620;SDS011;29213;50.770;7.298;2022-10-16T03:27:38;4.03;;;1.45;;
43620;SDS011;29213;50.770;7.298;2022-10-16T03:30:03;3.45;;;1.40;;
43620;SDS011;29213;50.770;7.298;2022-10-16T03:32:29;3.17;;;1.30;;
43620;SDS011;29213;50.770;7.298;2022-10-16T03:34:54;5.97;;;1.55;;
43620;SDS011;29213;50.770;7.298;2022-10-16T03:37:21;3.25;;;1.40;;
43620;SDS011;29213;50.770;7.298;2022-10-16T03:39:46;3.10;;;1.30;;
43620;SDS011;29213;50.770;7.298;2022-10-16T03:42:12;3.05;;;1.30;;
43620;SDS011;29213;50.770;7.298;2022-10-16T03:44:37;2.38;;;1.15;;
43620;SDS011;29213;50.770;7.298;2022-10-16T03:47:03;3.45;;;1.30;;
43620;SDS011;29213;50.770;7.298;2022-10-16T03:49:28;2.90;;;1.20;;
43620;SDS011;29213;50.770;7.298;2022-10-16T03:51:53;2.35;;;1.25;;
43620;SDS011;29213;50.770;7.298;2022-10-16T03:54:19;2.38;;;1.20;;
43620;SDS011;29213;50.770;7.298;2022-10-16T03:56:44;1.92;;;1.05;;
43620;SDS011;29213;50.770;7.298;2022-10-16T03:59:09;4.40;;;1.50;;
43620;SDS011;29213;50.770;7.298;2022-10-16T04:01:35;2.13;;;1.10;;
43620;SDS011;29213;50.770;7.298;2022-10-16T04:04:00;2.00;;;1.10;;
43620;SDS011;29213;50.770;7.298;2022-10-16T04:06:26;2.78;;;1.25;;
43620;SDS011;29213;50.770;7.298;2022-10-16T04:08:51;2.70;;;1.00;;
43620;SDS011;29213;50.770;7.298;2022-10-16T04:11:17;1.92;;;1.10;;
43620;SDS011;29213;50.770;7.298;2022-10-16T04:13:42;2.80;;;1.17;;
43620;SDS011;29213;50.770;7.298;2022-10-16T04:16:08;2.13;;;1.20;;
43620;SDS011;29213;50.770;7.298;2022-10-16T04:18:34;3.83;;;1.20;;
43620;SDS011;29213;50.770;7.298;2022-10-16T04:21:03;2.97;;;1.20;;
43620;SDS011;29213;50.770;7.298;2022-10-16T04:23:30;2.03;;;1.20;;
43620;SDS011;29213;50.770;7.298;2022-10-16T04:25:56;3.38;;;1.10;;
43620;SDS011;29213;50.770;7.298;2022-10-16T04:28:21;3.33;;;1.20;;
43620;SDS011;29213;50.770;7.298;2022-10-16T04:30:46;4.50;;;1.30;;
43620;SDS011;29213;50.770;7.298;2022-10-16T04:33:12;2.70;;;1.25;;
43620;SDS011;29213;50.770;7.298;2022-10-16T04:35:38;2.90;;;1.30;;
43620;SDS011;29213;50.770;7.298;2022-10-16T04:38:03;2.75;;;1.00;;
43620;SDS011;29213;50.770;7.298;2022-10-16T04:40:29;2.08;;;1.10;;
43620;SDS011;29213;50.770;7.298;2022-10-16T04:42:57;1.83;;;1.00;;
43620;SDS011;29213;50.770;7.298;2022-10-16T04:45:23;2.67;;;1.20;;
43620;SDS011;29213;50.770;7.298;2022-10-16T04:47:49;1.98;;;1.00;;
43620;SDS011;29213;50.770;7.298;2022-10-16T04:50:14;1.33;;;0.90;;
43620;SDS011;29213;50.770;7.298;2022-10-16T04:52:39;2.03;;;0.88;;
43620;SDS011;29213;50.770;7.298;2022-10-16T04:55:05;2.35;;;1.08;;
43620;SDS011;29213;50.770;7.298;2022-10-16T04:57:31;1.95;;;0.93;;
43620;SDS011;29213;50.770;7.298;2022-10-16T04:59:58;2.33;;;1.10;;
43620;SDS011;29213;50.770;7.298;2022-10-16T05:02:24;1.95;;;0.98;;
43620;SDS011;29213;50.770;7.298;2022-10-16T05:04:49;2.47;;;0.90;;
43620;SDS011;29213;50.770;7.298;2022-10-16T05:07:14;3.30;;;0.93;;
43620;SDS011;29213;50.770;7.298;2022-10-16T05:09:40;3.30;;;1.13;;
43620;SDS011;29213;50.770;7.298;2022-10-16T05:12:05;2.00;;;1.00;;
43620;SDS011;29213;50.770;7.298;2022-10-16T05:14:31;2.22;;;0.90;;
43620;SDS011;29213;50.770;7.298;2022-10-16T05:16:56;4.20;;;0.98;;
43620;SDS011;29213;50.770;7.298;2022-10-16T05:19:22;1.63;;;1.00;;
43620;SDS011;29213;50.770;7.298;2022-10-16T05:21:47;2.97;;;1.00;;
43620;SDS011;29213;50.770;7.298;2022-10-16T05:24:13;1.80;;;0.90;;
43620;SDS011;29213;50.770;7.298;2022-10-16T05:26:39;2.38;;;0.93;;
43620;SDS011;29213;50.770;7.298;2022-10-16T05:29:04;3.97;;;1.30;;
43620;SDS011;29213;50.770;7.298;2022-10-16T05:31:29;5.38;;;1.30;;
43620;SDS011;29213;50.770;7.298;2022-10-16T05:33:58;2.58;;;1.17;;
43620;SDS011;29213;50.770;7.298;2022-10-16T05:36:24;2.80;;;1.20;;
43620;SDS011;29213;50.770;7.298;2022-10-16T05:38:50;3.40;;;1.35;;
43620;SDS011;29213;50.770;7.298;2022-10-16T05:41:16;3.10;;;1.10;;
43620;SDS011;29213;50.770;7.298;2022-10-16T05:43:46;2.78;;;1.33;;
43620;SDS011;29213;50.770;7.298;2022-10-16T05:46:12;1.90;;;1.10;;
43620;SDS011;29213;50.770;7.298;2022-10-16T05:48:37;2.20;;;1.10;;
43620;SDS011;29213;50.770;7.298;2022-10-16T05:51:04;3.72;;;1.50;;
43620;SDS011;29213;50.770;7.298;2022-10-16T05:53:32;2.28;;;1.30;;
43620;SDS011;29213;50.770;7.298;2022-10-16T05:55:59;2.45;;;1.38;;
43620;SDS011;29213;50.770;7.298;2022-10-16T05:58:27;2.90;;;1.50;;
43620;SDS011;29213;50.770;7.298;2022-10-16T06:00:55;2.17;;;1.37;;
43620;SDS011;29213;50.770;7.298;2022-10-16T06:03:26;2.45;;;1.67;;
43620;SDS011;29213;50.770;7.298;2022-10-16T06:05:51;2.33;;;1.50;;
43620;SDS011;29213;50.770;7.298;2022-10-16T06:08:18;2.90;;;1.67;;
43620;SDS011;29213;50.770;7.298;2022-10-16T06:10:45;2.88;;;1.60;;
43620;SDS011;29213;50.770;7.298;2022-10-16T06:13:11;2.70;;;1.52;;
43620;SDS011;29213;50.770;7.298;2022-10-16T06:15:38;4.07;;;1.70;;
43620;SDS011;29213;50.770;7.298;2022-10-16T06:18:04;2.63;;;1.55;;
43620;SDS011;29213;50.770;7.298;2022-10-16T06:20:30;2.60;;;1.42;;
43620;SDS011;29213;50.770;7.298;2022-10-16T06:22:56;3.35;;;1.50;;
43620;SDS011;29213;50.770;7.298;2022-10-16T06:25:22;2.83;;;1.50;;
43620;SDS011;29213;50.770;7.298;2022-10-16T06:27:47;2.78;;;1.60;;
43620;SDS011;29213;50.770;7.298;2022-10-16T06:30:12;2.25;;;1.38;;
43620;SDS011;29213;50.770;7.298;2022-10-16T06:32:38;3.95;;;1.67;;
43620;SDS011;29213;50.770;7.298;2022-10-16T06:35:03;3.03;;;1.50;;
43620;SDS011;29213;50.770;7.298;2022-10-16T06:37:29;2.83;;;1.55;;
43620;SDS011;29213;50.770;7.298;2022-10-16T06:39:54;3.33;;;1.65;;
43620;SDS011;29213;50.770;7.298;2022-10-16T06:42:20;3.38;;;1.60;;
43620;SDS011;29213;50.770;7.298;2022-10-16T06:44:45;3.28;;;1.42;;
43620;SDS011;29213;50.770;7.298;2022-10-16T06:47:10;3.03;;;1.80;;
43620;SDS011;29213;50.770;7.298;2022-10-16T06:49:36;2.60;;;1.60;;
43620;SDS011;29213;50.770;7.298;2022-10-16T06:52:01;4.63;;;2.10;;
43620;SDS011;29213;50.770;7.298;2022-10-16T06:54:28;3.67;;;2.10;;
43620;SDS011;29213;50.770;7.298;2022-10-16T06:56:54;4.60;;;2.17;;
43620;SDS011;29213;50.770;7.298;2022-10-16T06:59:20;3.90;;;2.40;;
43620;SDS011;29213;50.770;7.298;2022-10-16T07:01:46;3.53;;;2.10;;
43620;SDS011;29213;50.770;7.298;2022-10-16T07:04:12;4.82;;;2.10;;
43620;SDS011;29213;50.770;7.298;2022-10-16T07:06:37;3.38;;;2.05;;
43620;SDS011;29213;50.770;7.298;2022-10-16T07:09:05;3.10;;;1.80;;
43620;SDS011;29213;50.770;7.298;2022-10-16T07:11:34;4.45;;;2.10;;
43620;SDS011;29213;50.770;7.298;2022-10-16T07:13:59;3.60;;;1.70;;
43620;SDS011;29213;50.770;7.298;2022-10-16T07:16:26;3.38;;;1.73;;
43620;SDS011;29213;50.770;7.298;2022-10-16T07:18:54;3.50;;;1.70;;
43620;SDS011;29213;50.770;7.298;2022-10-16T07:21:24;2.33;;;1.50;;
43620;SDS011;29213;50.770;7.298;2022-10-16T07:23:52;3.45;;;1.50;;
43620;SDS011;29213;50.770;7.298;2022-10-16T07:26:18;3.47;;;1.98;;
43620;SDS011;29213;50.770;7.298;2022-10-16T07:28:44;3.40;;;1.88;;
43620;SDS011;29213;50.770;7.298;2022-10-16T07:31:11;3.75;;;1.98;;
43620;SDS011;29213;50.770;7.298;2022-10-16T07:33:39;3.90;;;2.08;;
43620;SDS011;29213;50.770;7.298;2022-10-16T07:36:05;3.35;;;2.00;;
43620;SDS011;29213;50.770;7.298;2022-10-16T07:38:31;3.55;;;2.20;;
43620;SDS011;29213;50.770;7.298;2022-10-16T07:41:00;3.20;;;2.08;;
43620;SDS011;29213;50.770;7.298;2022-10-16T07:43:27;5.22;;;1.98;;
43620;SDS011;29213;50.770;7.298;2022-10-16T07:45:52;3.35;;;1.95;;
43620;SDS011;29213;50.770;7.298;2022-10-16T07:48:18;3.03;;;1.70;;
43620;SDS011;29213;50.770;7.298;2022-10-16T07:50:44;3.78;;;1.88;;
43620;SDS011;29213;50.770;7.298;2022-10-16T07:53:10;4.95;;;1.70;;
43620;SDS011;29213;50.770;7.298;2022-10-16T07:55:37;3.38;;;2.00;;
43620;SDS011;29213;50.770;7.298;2022-10-16T07:58:02;3.95;;;1.90;;
43620;SDS011;29213;50.770;7.298;2022-10-16T08:00:28;3.03;;;2.00;;
43620;SDS011;29213;50.770;7.298;2022-10-16T08:02:53;4.45;;;2.05;;
43620;SDS011;29213;50.770;7.298;2022-10-16T08:05:19;4.13;;;2.10;;
43620;SDS011;29213;50.770;7.298;2022-10-16T08:07:48;3.55;;;2.20;;
43620;SDS011;29213;50.770;7.298;2022-10-16T08:10:17;5.93;;;1.98;;
43620;SDS011;29213;50.770;7.298;2022-10-16T08:12:44;5.07;;;2.25;;
43620;SDS011;29213;50.770;7.298;2022-10-16T08:15:09;4.57;;;2.15;;
43620;SDS011;29213;50.770;7.298;2022-10-16T08:17:35;3.47;;;2.15;;
43620;SDS011;29213;50.770;7.298;2022-10-16T08:20:00;3.40;;;2.00;;
43620;SDS011;29213;50.770;7.298;2022-10-16T08:22:26;3.38;;;2.00;;
43620;SDS011;29213;50.770;7.298;2022-10-16T08:24:52;4.28;;;2.00;;
43620;SDS011;29213;50.770;7.298;2022-10-16T08:27:17;4.25;;;1.75;;
43620;SDS011;29213;50.770;7.298;2022-10-16T08:29:43;2.53;;;1.60;;
43620;SDS011;29213;50.770;7.298;2022-10-16T08:32:08;3.40;;;1.60;;
43620;SDS011;29213;50.770;7.298;2022-10-16T08:34:34;2.60;;;1.40;;
43620;SDS011;29213;50.770;7.298;2022-10-16T08:36:59;2.40;;;1.40;;
43620;SDS011;29213;50.770;7.298;2022-10-16T08:39:25;3.13;;;1.48;;
43620;SDS011;29213;50.770;7.298;2022-10-16T08:47:15;4.15;;;1.83;;
43620;SDS011;29213;50.770;7.298;2022-10-16T08:49:50;2.58;;;1.30;;
43620;SDS011;29213;50.770;7.298;2022-10-16T08:52:22;2.42;;;1.15;;
43620;SDS011;29213;50.770;7.298;2022-10-16T08:54:49;1.60;;;0.80;;
43620;SDS011;29213;50.770;7.298;2022-10-16T08:57:21;1.60;;;0.90;;
43620;SDS011;29213;50.770;7.298;2022-10-16T08:59:49;2.38;;;0.90;;
43620;SDS011;29213;50.770;7.298;2022-10-16T09:05:01;2.42;;;1.10;;
43620;SDS011;29213;50.770;7.298;2022-10-16T09:07:54;1.90;;;1.00;;
43620;SDS011;29213;50.770;7.298;2022-10-16T09:10:54;1.02;;;0.70;;
43620;SDS011;29213;50.770;7.298;2022-10-16T09:16:02;1.75;;;0.82;;
43620;SDS011;29213;50.770;7.298;2022-10-16T09:18:47;1.58;;;0.70;;
43620;SDS011;29213;50.770;7.298;2022-10-16T09:21:29;1.30;;;0.70;;
43620;SDS011;29213;50.770;7.298;2022-10-16T09:23:57;0.70;;;0.60;;
43620;SDS011;29213;50.770;7.298;2022-10-16T09:26:29;1.10;;;0.70;;
43620;SDS011;29213;50.770;7.298;2022-10-16T09:28:55;1.48;;;0.70;;
43620;SDS011;29213;50.770;7.298;2022-10-16T09:31:21;1.20;;;0.63;;
43620;SDS011;29213;50.770;7.298;2022-10-16T09:33:55;1.38;;;0.70;;
43620;SDS011;29213;50.770;7.298;2022-10-16T09:36:25;1.20;;;0.60;;
43620;SDS011;29213;50.770;7.298;2022-10-16T09:39:03;1.00;;;0.70;;
43620;SDS011;29213;50.770;7.298;2022-10-16T09:41:30;1.33;;;0.70;;
43620;SDS011;29213;50.770;7.298;2022-10-16T09:43:56;2.55;;;1.50;;
43620;SDS011;29213;50.770;7.298;2022-10-16T09:48:49;2.40;;;1.35;;
43620;SDS011;29213;50.770;7.298;2022-10-16T09:51:30;2.40;;;1.40;;
43620;SDS011;29213;50.770;7.298;2022-10-16T09:54:01;1.75;;;1.00;;
43620;SDS011;29213;50.770;7.298;2022-10-16T09:56:37;1.35;;;0.70;;
43620;SDS011;29213;50.770;7.298;2022-10-16T09:59:16;1.42;;;0.60;;
43620;SDS011;29213;50.770;7.298;2022-10-16T10:01:46;1.80;;;0.63;;
43620;SDS011;29213;50.770;7.298;2022-10-16T10:04:13;2.90;;;1.70;;
43620;SDS011;29213;50.770;7.298;2022-10-16T10:06:49;3.67;;;2.10;;
43620;SDS011;29213;50.770;7.298;2022-10-16T10:16:45;1.98;;;0.73;;
43620;SDS011;29213;50.770;7.298;2022-10-16T10:19:18;1.27;;;0.60;;
43620;SDS011;29213;50.770;7.298;2022-10-16T10:21:48;1.60;;;0.65;;
43620;SDS011;29213;50.770;7.298;2022-10-16T10:24:16;2.08;;;0.60;;
43620;SDS011;29213;50.770;7.298;2022-10-16T10:26:47;1.67;;;0.60;;
43620;SDS011;29213;50.770;7.298;2022-10-16T10:32:17;2.10;;;0.60;;
43620;SDS011;29213;50.770;7.298;2022-10-16T10:40:39;1.88;;;0.70;;
43620;SDS011;29213;50.770;7.298;2022-10-16T10:43:14;1.07;;;0.63;;
43620;SDS011;29213;50.770;7.298;2022-10-16T10:46:04;2.50;;;0.70;;
43620;SDS011;29213;50.770;7.298;2022-10-16T10:48:54;1.10;;;0.57;;
43620;SDS011;29213;50.770;7.298;2022-10-16T10:52:28;0.88;;;0.50;;
43620;SDS011;29213;50.770;7.298;2022-10-16T10:57:33;1.17;;;0.60;;
43620;SDS011;29213;50.770;7.298;2022-10-16T11:00:25;0.70;;;0.50;;
43620;SDS011;29213;50.770;7.298;2022-10-16T11:05:45;2.30;;;1.15;;
43620;SDS011;29213;50.770;7.298;2022-10-16T11:08:48;2.05;;;0.88;;
43620;SDS011;29213;50.770;7.298;2022-10-16T11:11:14;1.33;;;0.60;;
43620;SDS011;29213;50.770;7.298;2022-10-16T11:13:50;1.65;;;0.60;;
43620;SDS011;29213;50.770;7.298;2022-10-16T11:16:26;1.92;;;0.55;;
43620;SDS011;29213;50.770;7.298;2022-10-16T11:19:22;0.57;;;0.50;;
43620;SDS011;29213;50.770;7.298;2022-10-16T11:21:47;0.60;;;0.50;;
43620;SDS011;29213;50.770;7.298;2022-10-16T11:24:22;0.68;;;0.40;;
43620;SDS011;29213;50.770;7.298;2022-10-16T11:26:56;1.17;;;0.67;;
43620;SDS011;29213;50.770;7.298;2022-10-16T11:29:28;1.23;;;0.50;;
43620;SDS011;29213;50.770;7.298;2022-10-16T11:32:05;0.68;;;0.47;;
43620;SDS011;29213;50.770;7.298;2022-10-16T11:34:44;1.23;;;0.57;;
43620;SDS011;29213;50.770;7.298;2022-10-16T11:37:57;1.23;;;0.50;;
43620;SDS011;29213;50.770;7.298;2022-10-16T11:40:18;1.27;;;0.63;;
43620;SDS011;29213;50.770;7.298;2022-10-16T11:42:54;0.60;;;0.40;;
43620;SDS011;29213;50.770;7.298;2022-10-16T11:45:29;1.52;;;0.70;;
43620;SDS011;29213;50.770;7.298;2022-10-16T11:50:54;0.90;;;0.47;;
43620;SDS011;29213;50.770;7.298;2022-10-16T11:53:34;1.23;;;0.63;;
43620;SDS011;29213;50.770;7.298;2022-10-16T11:56:11;1.15;;;0.60;;
43620;SDS011;29213;50.770;7.298;2022-10-16T12:09:02;0.98;;;0.50;;
43620;SDS011;29213;50.770;7.298;2022-10-16T12:14:07;1.83;;;0.60;;
43620;SDS011;29213;50.770;7.298;2022-10-16T12:16:36;0.93;;;0.55;;
43620;SDS011;29213;50.770;7.298;2022-10-16T12:19:13;0.95;;;0.50;;
43620;SDS011;29213;50.770;7.298;2022-10-16T12:21:40;0.85;;;0.50;;
43620;SDS011;29213;50.770;7.298;2022-10-16T12:24:18;2.55;;;0.70;;
43620;SDS011;29213;50.770;7.298;2022-10-16T12:26:46;1.00;;;0.40;;
43620;SDS011;29213;50.770;7.298;2022-10-16T12:32:04;0.87;;;0.50;;
43620;SDS011;29213;50.770;7.298;2022-10-16T12:35:05;1.60;;;0.70;;
43620;SDS011;29213;50.770;7.298;2022-10-16T12:37:26;0.57;;;0.40;;
43620;SDS011;29213;50.770;7.298;2022-10-16T12:39:56;1.65;;;0.60;;
43620;SDS011;29213;50.770;7.298;2022-10-16T12:42:31;1.23;;;0.60;;
43620;SDS011;29213;50.770;7.298;2022-10-16T12:44:58;1.70;;;0.70;;
43620;SDS011;29213;50.770;7.298;2022-10-16T12:49:56;1.55;;;0.60;;
43620;SDS011;29213;50.770;7.298;2022-10-16T12:52:28;1.50;;;0.60;;
43620;SDS011;29213;50.770;7.298;2022-10-16T12:55:01;1.45;;;0.70;;
43620;SDS011;29213;50.770;7.298;2022-10-16T13:12:00;1.00;;;0.60;;
43620;SDS011;29213;50.770;7.298;2022-10-16T13:17:11;1.92;;;0.88;;
43620;SDS011;29213;50.770;7.298;2022-10-16T13:19:41;1.92;;;0.73;;
43620;SDS011;29213;50.770;7.298;2022-10-16T13:24:59;0.98;;;0.60;;
43620;SDS011;29213;50.770;7.298;2022-10-16T13:27:46;0.90;;;0.60;;
43620;SDS011;29213;50.770;7.298;2022-10-16T13:30:34;1.40;;;0.50;;
43620;SDS011;29213;50.770;7.298;2022-10-16T13:35:35;3.75;;;1.27;;
43620;SDS011;29213;50.770;7.298;2022-10-16T13:40:31;3.45;;;1.38;;
43620;SDS011;29213;50.770;7.298;2022-10-16T13:42:59;2.22;;;0.90;;
43620;SDS011;29213;50.770;7.298;2022-10-16T13:45:25;1.63;;;0.60;;
43620;SDS011;29213;50.770;7.298;2022-10-16T13:48:09;2.15;;;0.73;;
43620;SDS011;29213;50.770;7.298;2022-10-16T13:50:37;0.95;;;0.60;;
43620;SDS011;29213;50.770;7.298;2022-10-16T13:53:06;1.52;;;0.60;;
43620;SDS011;29213;50.770;7.298;2022-10-16T13:55:37;1.15;;;0.60;;
43620;SDS011;29213;50.770;7.298;2022-10-16T13:58:13;1.08;;;0.60;;
43620;SDS011;29213;50.770;7.298;2022-10-16T14:00:39;2.75;;;0.68;;
43620;SDS011;29213;50.770;7.298;2022-10-16T14:03:17;1.80;;;0.77;;
43620;SDS011;29213;50.770;7.298;2022-10-16T14:05:51;1.17;;;0.65;;
43620;SDS011;29213;50.770;7.298;2022-10-16T14:08:22;2.00;;;0.80;;
43620;SDS011;29213;50.770;7.298;2022-10-16T14:10:51;1.67;;;0.70;;
43620;SDS011;29213;50.770;7.298;2022-10-16T14:13:19;2.22;;;0.90;;
43620;SDS011;29213;50.770;7.298;2022-10-16T14:15:51;2.75;;;0.90;;
43620;SDS011;29213;50.770;7.298;2022-10-16T14:18:21;1.70;;;0.73;;
43620;SDS011;29213;50.770;7.298;2022-10-16T14:20:49;2.72;;;0.77;;
43620;SDS011;29213;50.770;7.298;2022-10-16T14:23:29;1.73;;;0.70;;
43620;SDS011;29213;50.770;7.298;2022-10-16T14:28:35;1.25;;;0.63;;
43620;SDS011;29213;50.770;7.298;2022-10-16T14:31:02;1.35;;;0.70;;
43620;SDS011;29213;50.770;7.298;2022-10-16T14:33:48;1.45;;;0.65;;
43620;SDS011;29213;50.770;7.298;2022-10-16T14:36:14;1.48;;;0.75;;
43620;SDS011;29213;50.770;7.298;2022-10-16T14:38:47;1.00;;;0.70;;
43620;SDS011;29213;50.770;7.298;2022-10-16T14:41:22;1.20;;;0.70;;
43620;SDS011;29213;50.770;7.298;2022-10-16T14:43:52;2.33;;;0.73;;
43620;SDS011;29213;50.770;7.298;2022-10-16T14:46:21;1.40;;;0.60;;
43620;SDS011;29213;50.770;7.298;2022-10-16T14:48:51;1.52;;;0.70;;
43620;SDS011;29213;50.770;7.298;2022-10-16T14:51:25;1.83;;;0.93;;
43620;SDS011;29213;50.770;7.298;2022-10-16T14:53:51;1.52;;;0.88;;
43620;SDS011;29213;50.770;7.298;2022-10-16T14:56:21;2.00;;;0.90;;
43620;SDS011;29213;50.770;7.298;2022-10-16T14:58:49;1.38;;;0.73;;
43620;SDS011;29213;50.770;7.298;2022-10-16T15:01:16;1.60;;;0.80;;
43620;SDS011;29213;50.770;7.298;2022-10-16T15:03:42;1.92;;;0.70;;
43620;SDS011;29213;50.770;7.298;2022-10-16T15:06:11;1.98;;;0.80;;
43620;SDS011;29213;50.770;7.298;2022-10-16T15:08:41;1.55;;;0.70;;
43620;SDS011;29213;50.770;7.298;2022-10-16T15:11:16;3.45;;;1.05;;
43620;SDS011;29213;50.770;7.298;2022-10-16T15:13:43;2.88;;;1.05;;
43620;SDS011;29213;50.770;7.298;2022-10-16T15:16:13;2.42;;;0.90;;
43620;SDS011;29213;50.770;7.298;2022-10-16T15:18:41;2.25;;;1.10;;
43620;SDS011;29213;50.770;7.298;2022-10-16T15:21:06;2.63;;;1.10;;
43620;SDS011;29213;50.770;7.298;2022-10-16T15:23:32;2.55;;;0.93;;
43620;SDS011;29213;50.770;7.298;2022-10-16T15:25:58;2.10;;;0.90;;
43620;SDS011;29213;50.770;7.298;2022-10-16T15:28:24;2.10;;;0.80;;
43620;SDS011;29213;50.770;7.298;2022-10-16T15:30:54;1.88;;;0.82;;
43620;SDS011;29213;50.770;7.298;2022-10-16T15:33:25;1.88;;;0.90;;
43620;SDS011;29213;50.770;7.298;2022-10-16T15:35:57;1.90;;;0.73;;
43620;SDS011;29213;50.770;7.298;2022-10-16T15:38:23;1.45;;;0.80;;
43620;SDS011;29213;50.770;7.298;2022-10-16T15:40:48;2.05;;;0.80;;
43620;SDS011;29213;50.770;7.298;2022-10-16T15:43:15;1.52;;;0.70;;
43620;SDS011;29213;50.770;7.298;2022-10-16T15:45:40;2.65;;;1.00;;
43620;SDS011;29213;50.770;7.298;2022-10-16T15:48:06;2.10;;;1.10;;
43620;SDS011;29213;50.770;7.298;2022-10-16T15:50:32;1.98;;;0.98;;
43620;SDS011;29213;50.770;7.298;2022-10-16T15:52:58;3.85;;;0.93;;
43620;SDS011;29213;50.770;7.298;2022-10-16T15:55:23;3.75;;;1.00;;
43620;SDS011;29213;50.770;7.298;2022-10-16T15:57:49;2.58;;;0.95;;
43620;SDS011;29213;50.770;7.298;2022-10-16T16:00:16;3.85;;;1.08;;
43620;SDS011;29213;50.770;7.298;2022-10-16T16:02:50;1.92;;;0.85;;
43620;SDS011;29213;50.770;7.298;2022-10-16T16:05:17;1.85;;;0.80;;
43620;SDS011;29213;50.770;7.298;2022-10-16T16:07:42;1.60;;;0.70;;
43620;SDS011;29213;50.770;7.298;2022-10-16T16:10:09;2.15;;;0.90;;
43620;SDS011;29213;50.770;7.298;2022-10-16T16:12:35;2.05;;;0.90;;
43620;SDS011;29213;50.770;7.298;2022-10-16T16:15:02;2.40;;;1.00;;
43620;SDS011;29213;50.770;7.298;2022-10-16T16:17:30;2.60;;;0.90;;
43620;SDS011;29213;50.770;7.298;2022-10-16T16:19:56;2.28;;;1.02;;
43620;SDS011;29213;50.770;7.298;2022-10-16T16:22:21;2.60;;;1.08;;
43620;SDS011;29213;50.770;7.298;2022-10-16T16:24:46;3.13;;;0.98;;
43620;SDS011;29213;50.770;7.298;2022-10-16T16:27:12;1.90;;;1.05;;
43620;SDS011;29213;50.770;7.298;2022-10-16T16:29:38;3.05;;;1.20;;
43620;SDS011;29213;50.770;7.298;2022-10-16T16:32:04;3.17;;;1.20;;